Wareham Weather Station Historical Data
 
Daily Summary for May 21, 2018 Units:  Metric    English   Both
Daily Weekly Monthly Yearly Custom
  Current: High: Low: Average:
Temperature: 14.5 °C 24.3 °C 5.4 °C 14.9 °C
Dew Point: 13.2 °C 14.2 °C 4.4 °C 10.1 °C
Humidity: 92% 96% 46% 76%
Wind Speed: 0km/h 12.9km/h 0km/h 3.9km/h
Wind Gust: 3.2km/h 25.7km/h - -
WindCalm - - SE
Pressure: 1014.8 hPa 1018.8 hPa 1013.4 hPa -
Precipitation: 5.33 mm      
Historical Graphs
 
 
Tabular Data for May 21, 2018
Time Temperature Dew Point Pressure Wind Wind Speed Wind Gust Humidity Rainfall Rate (Hourly) solar
00:04 9.2 °C 7.5 °C 1018.8 hPa Calm     89% 0 mm 0 W/m2
00:09 9.2 °C 7.4 °C 1018.8 hPa Calm     89% 0 mm 0 W/m2
00:14 9.1 °C 7.6 °C 1018.8 hPa Calm     90% 0 mm 0 W/m2
00:19 9.1 °C 7.3 °C 1018.8 hPa Calm     89% 0 mm 0 W/m2
00:24 8.9 °C 7.4 °C 1018.8 hPa Calm     90% 0 mm 0 W/m2
00:29 8.9 °C 7.3 °C 1018.8 hPa Calm     90% 0 mm 0 W/m2
00:34 8.8 °C 7.3 °C 1018.5 hPa Calm     90% 0 mm 0 W/m2
00:39 8.7 °C 7.2 °C 1018.5 hPa Calm     90% 0 mm 0 W/m2
00:44 8.7 °C 7.3 °C 1018.5 hPa Calm     91% 0 mm 0 W/m2
00:49 8.7 °C 7.3 °C 1018.5 hPa Calm     91% 0 mm 0 W/m2
00:54 8.6 °C 7.2 °C 1018.5 hPa Calm     91% 0 mm 0 W/m2
00:59 8.5 °C 7.1 °C 1018.5 hPa Calm     91% 0 mm 0 W/m2
01:04 8.4 °C 7.1 °C 1018.5 hPa Calm     91% 0 mm 0 W/m2
01:09 8.4 °C 7 °C 1018.5 hPa Calm     91% 0 mm 0 W/m2
01:14 8.3 °C 6.9 °C 1018.5 hPa Calm     91% 0 mm 0 W/m2
01:19 8.2 °C 6.8 °C 1018.5 hPa Calm     91% 0 mm 0 W/m2
01:24 8.1 °C 6.7 °C 1018.2 hPa Calm     91% 0 mm 0 W/m2
01:29 8.1 °C 6.8 °C 1018.2 hPa Calm     92% 0 mm 0 W/m2
01:34 8 °C 6.8 °C 1018.2 hPa Calm     92% 0 mm 0 W/m2
01:39 7.9 °C 6.7 °C 1018.2 hPa Calm     92% 0 mm 0 W/m2
01:44 7.9 °C 6.7 °C 1018.2 hPa Calm     92% 0 mm 0 W/m2
01:49 7.8 °C 6.6 °C 1018.2 hPa Calm     92% 0 mm 0 W/m2
01:54 7.8 °C 6.6 °C 1018.2 hPa Calm     92% 0 mm 0 W/m2
01:59 7.7 °C 6.4 °C 1018.2 hPa Calm   3.2 km/h 92% 0 mm 0 W/m2
02:04 7.5 °C 6.3 °C 1018.2 hPa Calm   3.2 km/h 92% 0 mm 0 W/m2
02:09 7.4 °C 6.2 °C 1017.8 hPa Calm   3.2 km/h 92% 0 mm 0 W/m2
02:14 7.3 °C 6.1 °C 1017.8 hPa Calm     92% 0 mm 0 W/m2
02:19 7.3 °C 6.1 °C 1017.8 hPa Calm     92% 0 mm 0 W/m2
02:24 7.2 °C 6 °C 1017.8 hPa Calm     92% 0 mm 0 W/m2
02:29 7.2 °C 6.1 °C 1017.8 hPa Calm     93% 0 mm 0 W/m2
02:34 7.2 °C 6.1 °C 1017.8 hPa Calm     93% 0 mm 0 W/m2
02:39 7.2 °C 6.1 °C 1017.8 hPa Calm     93% 0 mm 0 W/m2
02:44 7.1 °C 6.1 °C 1017.8 hPa Calm     93% 0 mm 0 W/m2
02:49 7.1 °C 6.1 °C 1017.5 hPa Calm     93% 0 mm 0 W/m2
02:54 7.1 °C 6.1 °C 1017.5 hPa Calm     93% 0 mm 0 W/m2
02:59 7.2 °C 6.3 °C 1017.8 hPa Calm   1.6 km/h 94% 0 mm 0 W/m2
03:04 7.2 °C 6.3 °C 1017.5 hPa Calm   1.6 km/h 94% 0 mm 0 W/m2
03:09 7.2 °C 6.1 °C 1017.5 hPa Calm     93% 0 mm 0 W/m2
03:14 7.2 °C 6.1 °C 1017.5 hPa Calm     93% 0 mm 0 W/m2
03:19 7.1 °C 6.1 °C 1017.5 hPa Calm     93% 0 mm 0 W/m2
03:24 7.1 °C 6.2 °C 1017.5 hPa Calm     94% 0 mm 0 W/m2
03:29 7.1 °C 6.2 °C 1017.5 hPa Calm     94% 0 mm 0 W/m2
03:34 6.9 °C 5.9 °C 1017.5 hPa Calm     93% 0 mm 0 W/m2
03:39 6.9 °C 5.8 °C 1017.5 hPa Calm     93% 0 mm 0 W/m2
03:44 6.8 °C 5.7 °C 1017.5 hPa Calm     93% 0 mm 0 W/m2
03:49 6.7 °C 5.7 °C 1017.5 hPa Calm     93% 0 mm 0 W/m2
03:54 6.7 °C 5.6 °C 1017.5 hPa Calm     93% 0 mm 0 W/m2
03:59 6.6 °C 5.7 °C 1017.5 hPa Calm     94% 0 mm 0 W/m2
04:04 6.5 °C 5.4 °C 1017.2 hPa Calm     93% 0 mm 0 W/m2
04:09 6.4 °C 5.4 °C 1017.2 hPa Calm     93% 0 mm 0 W/m2
04:14 6.3 °C 5.3 °C 1017.2 hPa Calm     93% 0 mm 0 W/m2
04:19 6.3 °C 5.4 °C 1017.2 hPa Calm     94% 0 mm 0 W/m2
04:24 6.3 °C 5.4 °C 1017.2 hPa Calm     94% 0 mm 0 W/m2
04:29 6.3 °C 5.4 °C 1017.2 hPa Calm     94% 0 mm 0 W/m2
04:34 6.2 °C 5.3 °C 1017.2 hPa Calm     94% 0 mm 0 W/m2
04:39 6.2 °C 5.1 °C 1016.8 hPa Calm     93% 0 mm 0 W/m2
04:44 6.1 °C 5.2 °C 1016.8 hPa SW 1.6 km/h 4.8 km/h 94% 0 mm 0 W/m2
04:49 6.2 °C 5.3 °C 1016.5 hPa WSW 3.2 km/h 11.3 km/h 94% 0 mm 0 W/m2
04:54 6.2 °C 5.5 °C 1016.5 hPa West 4.8 km/h 11.3 km/h 95% 0 mm 0 W/m2
04:59 6.2 °C 5.3 °C 1016.8 hPa West 3.2 km/h 9.7 km/h 94% 0 mm 0 W/m2
05:04 6.1 °C 5.2 °C 1016.8 hPa WSW 1.6 km/h 4.8 km/h 94% 0 mm 0 W/m2
05:09 5.8 °C 4.8 °C 1016.8 hPa SW 1.6 km/h 4.8 km/h 93% 0 mm 0 W/m2
05:14 5.6 °C 4.6 °C 1016.8 hPa WNW 1.6 km/h 6.4 km/h 93% 0 mm 5 W/m2
05:19 5.5 °C 4.4 °C 1016.8 hPa NW 1.6 km/h 6.4 km/h 93% 0 mm 7 W/m2
05:24 5.4 °C 4.4 °C 1016.8 hPa Calm     93% 0 mm 9 W/m2
05:29 5.4 °C 4.6 °C 1016.8 hPa NNW 1.6 km/h 4.8 km/h 94% 0 mm 12 W/m2
05:34 5.4 °C 4.6 °C 1016.8 hPa NNW 1.6 km/h 4.8 km/h 94% 0 mm 14 W/m2
05:39 5.4 °C 4.6 °C 1016.8 hPa NNW 1.6 km/h 4.8 km/h 94% 0 mm 18 W/m2
05:44 5.4 °C 4.6 °C 1016.8 hPa Calm   3.2 km/h 94% 0 mm 21 W/m2
05:49 5.5 °C 4.6 °C 1016.8 hPa Calm     94% 0 mm 25 W/m2
05:54 5.5 °C 4.8 °C 1016.8 hPa Calm     95% 0 mm 28 W/m2
05:59 5.6 °C 4.8 °C 1016.8 hPa Calm     95% 0 mm 35 W/m2
06:04 5.7 °C 4.9 °C 1016.8 hPa Calm     95% 0 mm 40 W/m2
06:09 5.7 °C 5 °C 1016.8 hPa Calm     95% 0 mm 47 W/m2
06:14 5.8 °C 5.1 °C 1016.8 hPa Calm     95% 0 mm 53 W/m2
06:19 5.9 °C 5.2 °C 1016.8 hPa Calm     95% 0 mm 47 W/m2
06:24 6.1 °C 5.3 °C 1016.8 hPa Calm   3.2 km/h 95% 0 mm 51 W/m2
06:29 6.3 °C 5.6 °C 1016.8 hPa Calm   3.2 km/h 95% 0 mm 54 W/m2
06:34 6.5 °C 5.9 °C 1016.8 hPa Calm   3.2 km/h 96% 0 mm 65 W/m2
06:39 6.7 °C 6.1 °C 1016.8 hPa Calm     96% 0 mm 79 W/m2
06:44 6.9 °C 6.3 °C 1016.8 hPa Calm     96% 0 mm 123 W/m2
06:49 7.1 °C 6.3 °C 1016.8 hPa Calm     95% 0 mm 135 W/m2
06:54 7.2 °C 6.5 °C 1016.8 hPa Calm     95% 0 mm 146 W/m2
06:59 7.3 °C 6.4 °C 1016.8 hPa Calm     94% 0 mm 156 W/m2
07:04 7.6 °C 6.9 °C 1016.8 hPa Calm     95% 0 mm 169 W/m2
07:09 7.9 °C 7.2 °C 1016.8 hPa Calm     95% 0 mm 181 W/m2
07:14 8.4 °C 7.7 °C 1016.8 hPa Calm     95% 0 mm 193 W/m2
07:19 8.8 °C 7.9 °C 1016.8 hPa Calm     94% 0 mm 204 W/m2
07:24 9.3 °C 8.2 °C 1016.8 hPa Calm   1.6 km/h 93% 0 mm 218 W/m2
07:29 9.6 °C 8.4 °C 1016.8 hPa Calm   1.6 km/h 92% 0 mm 230 W/m2
07:34 10.2 °C 8.9 °C 1016.8 hPa Calm   1.6 km/h 92% 0 mm 244 W/m2
07:39 10.7 °C 9 °C 1016.8 hPa Calm   1.6 km/h 89% 0 mm 257 W/m2
07:44 11.1 °C 9.1 °C 1016.8 hPa Calm     87% 0 mm 269 W/m2
07:49 11.3 °C 9.1 °C 1016.8 hPa Calm     86% 0 mm 285 W/m2
07:54 11.8 °C 9.4 °C 1016.8 hPa Calm   1.6 km/h 85% 0 mm 301 W/m2
07:59 12.2 °C 9.6 °C 1016.8 hPa Calm   1.6 km/h 84% 0 mm 313 W/m2
08:04 12.5 °C 9.9 °C 1016.8 hPa Calm     84% 0 mm 329 W/m2
08:09 12.8 °C 10 °C 1016.5 hPa Calm     83% 0 mm 339 W/m2
08:14 13.2 °C 10 °C 1016.5 hPa North 1.6 km/h 9.7 km/h 81% 0 mm 359 W/m2
08:19 13.5 °C 9.7 °C 1016.5 hPa North 3.2 km/h 9.7 km/h 78% 0 mm 373 W/m2
08:24 13.8 °C 9.9 °C 1016.5 hPa NNE 3.2 km/h 8 km/h 77% 0 mm 388 W/m2
08:29 14.3 °C 10.2 °C 1016.5 hPa NNE 3.2 km/h 6.4 km/h 76% 0 mm 397 W/m2
08:34 14.7 °C 10.3 °C 1016.5 hPa NE 3.2 km/h 6.4 km/h 75% 0 mm 413 W/m2
08:39 15.1 °C 10.7 °C 1016.5 hPa NNE 1.6 km/h 4.8 km/h 75% 0 mm 427 W/m2
08:44 15.3 °C 9.8 °C 1016.5 hPa NE 3.2 km/h 9.7 km/h 70% 0 mm 441 W/m2
08:49 15.4 °C 10 °C 1016.5 hPa NE 4.8 km/h 9.7 km/h 70% 0 mm 455 W/m2
08:54 15.8 °C 10.3 °C 1016.5 hPa NNE 3.2 km/h 9.7 km/h 70% 0 mm 462 W/m2
08:59 16.1 °C 10.4 °C 1016.5 hPa North 3.2 km/h 9.7 km/h 69% 0 mm 478 W/m2
09:04 16.3 °C 10.4 °C 1016.5 hPa North 4.8 km/h 9.7 km/h 68% 0 mm 494 W/m2
09:09 16.5 °C 10.3 °C 1016.1 hPa North 4.8 km/h 9.7 km/h 67% 0 mm 503 W/m2
09:14 16.7 °C 11 °C 1016.1 hPa North 4.8 km/h 12.9 km/h 69% 0 mm 517 W/m2
09:19 17 °C 10.8 °C 1016.1 hPa North 4.8 km/h 12.9 km/h 67% 0 mm 533 W/m2
09:24 17.2 °C 10.6 °C 1016.1 hPa NNE 4.8 km/h 9.7 km/h 65% 0 mm 541 W/m2
09:29 17.4 °C 10.8 °C 1016.1 hPa NE 6.4 km/h 12.9 km/h 65% 0 mm 552 W/m2
09:34 17.6 °C 10.9 °C 1016.1 hPa NNE 6.4 km/h 16.1 km/h 65% 0 mm 559 W/m2
09:39 17.7 °C 10.8 °C 1016.1 hPa NNE 6.4 km/h 16.1 km/h 64% 0 mm 570 W/m2
09:44 17.9 °C 11.5 °C 1016.1 hPa NE 6.4 km/h 12.9 km/h 66% 0 mm 578 W/m2
09:49 18.2 °C 11.8 °C 1016.1 hPa NE 4.8 km/h 12.9 km/h 66% 0 mm 592 W/m2
09:54 18.5 °C 11.6 °C 1015.8 hPa NNE 4.8 km/h 12.9 km/h 64% 0 mm 612 W/m2
09:59 18.6 °C 11.4 °C 1015.8 hPa NNE 4.8 km/h 16.1 km/h 63% 0 mm 621 W/m2
10:04 18.7 °C 11.6 °C 1016.1 hPa NNE 6.4 km/h 16.1 km/h 63% 0 mm 628 W/m2
10:09 18.9 °C 11.4 °C 1015.8 hPa NE 6.4 km/h 14.5 km/h 62% 0 mm 638 W/m2
10:14 19.1 °C 11.7 °C 1015.8 hPa NE 6.4 km/h 14.5 km/h 62% 0 mm 642 W/m2
10:19 19.3 °C 11.6 °C 1015.8 hPa NE 6.4 km/h 14.5 km/h 61% 0 mm 656 W/m2
10:24 19.4 °C 11.5 °C 1015.8 hPa NE 6.4 km/h 14.5 km/h 60% 0 mm 664 W/m2
10:29 19.7 °C 11.9 °C 1015.8 hPa NNE 6.4 km/h 14.5 km/h 61% 0 mm 671 W/m2
10:34 19.9 °C 12.2 °C 1015.8 hPa NE 6.4 km/h 14.5 km/h 61% 0 mm 686 W/m2
10:39 20.1 °C 11.8 °C 1015.8 hPa NE 6.4 km/h 19.3 km/h 59% 0 mm 691 W/m2
10:44 20.2 °C 11.9 °C 1015.8 hPa NE 8 km/h 19.3 km/h 59% 0 mm 696 W/m2
10:49 20.2 °C 11.7 °C 1015.8 hPa NNE 8 km/h 16.1 km/h 58% 0 mm 707 W/m2
10:54 20.3 °C 12 °C 1015.8 hPa NNE 8 km/h 16.1 km/h 59% 0 mm 715 W/m2
10:59 20.3 °C 12 °C 1015.5 hPa NNE 8 km/h 17.7 km/h 59% 0 mm 740 W/m2
11:04 20.3 °C 12 °C 1015.5 hPa NE 8 km/h 17.7 km/h 59% 0 mm 735 W/m2
11:09 20.3 °C 12.1 °C 1015.5 hPa NE 8 km/h 17.7 km/h 59% 0 mm 745 W/m2
11:14 20.6 °C 12.3 °C 1015.5 hPa NE 6.4 km/h 14.5 km/h 59% 0 mm 754 W/m2
11:19 20.8 °C 12.2 °C 1015.5 hPa ENE 9.7 km/h 17.7 km/h 58% 0 mm 768 W/m2
11:24 21.1 °C 12.4 °C 1015.5 hPa ENE 9.7 km/h 17.7 km/h 58% 0 mm 784 W/m2
11:29 21.4 °C 12.8 °C 1015.5 hPa ENE 6.4 km/h 14.5 km/h 58% 0 mm 775 W/m2
11:34 21.8 °C 12.6 °C 1015.5 hPa NE 6.4 km/h 14.5 km/h 56% 0 mm 780 W/m2
11:39 21.8 °C 12.4 °C 1015.5 hPa NE 8 km/h 14.5 km/h 55% 0 mm 789 W/m2
11:44 21.8 °C 12.4 °C 1015.5 hPa NE 6.4 km/h 14.5 km/h 55% 0 mm 782 W/m2
11:49 21.9 °C 11.9 °C 1015.5 hPa NE 6.4 km/h 14.5 km/h 53% 0 mm 800 W/m2
11:54 22.1 °C 12.1 °C 1015.5 hPa ENE 6.4 km/h 14.5 km/h 53% 0 mm 807 W/m2
11:55 22.1 °C 11.7 °C 1015.5 hPa ENE 6.4 km/h 14.5 km/h 52% 0 mm 807 W/m2
12:00 22.2 °C 12.4 °C 1015.5 hPa East 6.4 km/h 14.5 km/h 54% 0 mm 819 W/m2
12:05 22.4 °C 12.1 °C 1015.5 hPa East 6.4 km/h 14.5 km/h 52% 0 mm 817 W/m2
12:10 22.3 °C 12.3 °C 1015.5 hPa East 8 km/h 16.1 km/h 53% 0 mm 810 W/m2
12:15 22.3 °C 12 °C 1015.1 hPa East 9.7 km/h 16.1 km/h 52% 0 mm 816 W/m2
12:20 22.3 °C 12.5 °C 1015.1 hPa East 8 km/h 17.7 km/h 54% 0 mm 835 W/m2
12:25 22.4 °C 12.3 °C 1015.1 hPa East 8 km/h 17.7 km/h 53% 0 mm 833 W/m2
12:30 22.6 °C 12.2 °C 1015.1 hPa East 8 km/h 16.1 km/h 52% 0 mm 835 W/m2
12:34 22.6 °C 12.5 °C 1015.1 hPa ESE 8 km/h 14.5 km/h 53% 0 mm 831 W/m2
12:39 22.7 °C 12.6 °C 1015.1 hPa ESE 6.4 km/h 12.9 km/h 53% 0 mm 837 W/m2
12:44 22.8 °C 12.7 °C 1015.1 hPa East 6.4 km/h 12.9 km/h 53% 0 mm 835 W/m2
12:49 22.8 °C 12.4 °C 1014.8 hPa East 8 km/h 14.5 km/h 52% 0 mm 835 W/m2
12:54 22.9 °C 12.2 °C 1014.8 hPa ESE 8 km/h 16.1 km/h 51% 0 mm 847 W/m2
12:59 22.9 °C 12.3 °C 1014.8 hPa ESE 8 km/h 16.1 km/h 51% 0 mm 847 W/m2
13:04 23.1 °C 12.1 °C 1014.8 hPa East 6.4 km/h 12.9 km/h 50% 0 mm 856 W/m2
13:09 23.1 °C 12.1 °C 1014.8 hPa East 6.4 km/h 14.5 km/h 50% 0 mm 701 W/m2
13:14 23.2 °C 12.2 °C 1014.8 hPa East 6.4 km/h 14.5 km/h 50% 0 mm 856 W/m2
13:19 23.2 °C 12.2 °C 1014.8 hPa East 6.4 km/h 14.5 km/h 50% 0 mm 863 W/m2
13:24 23.1 °C 11.8 °C 1014.8 hPa East 8 km/h 14.5 km/h 49% 0 mm 858 W/m2
13:29 23.2 °C 12.2 °C 1014.8 hPa East 6.4 km/h 14.5 km/h 50% 0 mm 780 W/m2
13:34 23.3 °C 12.3 °C 1014.4 hPa ENE 6.4 km/h 14.5 km/h 50% 0 mm 847 W/m2
13:39 23.7 °C 12.3 °C 1014.8 hPa ENE 6.4 km/h 16.1 km/h 49% 0 mm 821 W/m2
13:44 23.9 °C 12.3 °C 1014.8 hPa NE 6.4 km/h 16.1 km/h 48% 0 mm 807 W/m2
13:49 23.8 °C 12.2 °C 1014.8 hPa NE 8 km/h 19.3 km/h 48% 0 mm 826 W/m2
13:53 23.8 °C 12.1 °C 1014.8 hPa ENE 8 km/h 19.3 km/h 48% 0 mm 824 W/m2
13:58 23.7 °C 12.4 °C 1014.4 hPa East 8 km/h 19.3 km/h 49% 0 mm 830 W/m2
14:03 23.7 °C 12.6 °C 1014.4 hPa East 8 km/h 17.7 km/h 50% 0 mm 830 W/m2
14:08 23.8 °C 12.4 °C 1014.4 hPa ENE 6.4 km/h 14.5 km/h 49% 0 mm 826 W/m2
14:13 23.9 °C 11.9 °C 1014.4 hPa ESE 6.4 km/h 16.1 km/h 47% 0 mm 844 W/m2
14:18 24.2 °C 11.8 °C 1014.4 hPa ESE 8 km/h 16.1 km/h 46% 0 mm 837 W/m2
14:23 24.3 °C 12.2 °C 1014.4 hPa East 8 km/h 16.1 km/h 47% 0 mm 898 W/m2
14:28 24.1 °C 12.1 °C 1014.4 hPa ESE 9.7 km/h 17.7 km/h 47% 0 mm 237 W/m2
14:33 23.6 °C 11.9 °C 1014.4 hPa ESE 9.7 km/h 17.7 km/h 48% 0 mm 186 W/m2
14:38 23.2 °C 11.6 °C 1014.4 hPa East 9.7 km/h 17.7 km/h 48% 0 mm 178 W/m2
14:43 22.8 °C 11.2 °C 1014.4 hPa East 9.7 km/h 17.7 km/h 48% 0 mm 223 W/m2
14:48 22.6 °C 11.6 °C 1014.4 hPa ESE 8 km/h 16.1 km/h 50% 0 mm 925 W/m2
14:53 22.7 °C 10.8 °C 1014.4 hPa East 8 km/h 16.1 km/h 47% 0 mm 274 W/m2
14:58 22.5 °C 10.6 °C 1014.4 hPa East 8 km/h 12.9 km/h 47% 0 mm 229 W/m2
15:03 22.3 °C 11.1 °C 1014.4 hPa East 6.4 km/h 12.9 km/h 49% 0 mm 220 W/m2
15:08 22.2 °C 11 °C 1014.4 hPa East 4.8 km/h 9.7 km/h 49% 0 mm 218 W/m2
15:13 22.2 °C 11 °C 1014.4 hPa ENE 4.8 km/h 8 km/h 49% 0 mm 227 W/m2
15:18 22.2 °C 10.6 °C 1014.1 hPa ENE 4.8 km/h 12.9 km/h 48% 0 mm 251 W/m2
15:23 22.1 °C 10.6 °C 1014.1 hPa ENE 6.4 km/h 14.5 km/h 48% 0 mm 288 W/m2
15:28 22.1 °C 10.8 °C 1014.1 hPa East 8 km/h 14.5 km/h 49% 0 mm 258 W/m2
15:33 22 °C 10.8 °C 1014.1 hPa East 6.4 km/h 12.9 km/h 49% 0 mm 241 W/m2
15:38 21.8 °C 12.4 °C 1014.1 hPa South 6.4 km/h 19.3 km/h 55% 0 mm 250 W/m2
15:43 21.2 °C 12.3 °C 1014.4 hPa WSW 9.7 km/h 20.9 km/h 57% 0 mm 271 W/m2
15:48 20.6 °C 12 °C 1014.1 hPa West 11.3 km/h 20.9 km/h 58% 0 mm 457 W/m2
15:54 20.5 °C 12.4 °C 1014.1 hPa West 11.3 km/h 20.9 km/h 60% 0 mm 828 W/m2
15:59 20.6 °C 12.3 °C 1014.1 hPa WSW 9.7 km/h 17.7 km/h 59% 0 mm 292 W/m2
16:04 20.6 °C 12.3 °C 1014.1 hPa WSW 8 km/h 17.7 km/h 59% 0 mm 258 W/m2
16:09 20.3 °C 12.1 °C 1014.1 hPa WSW 9.7 km/h 16.1 km/h 59% 0 mm 272 W/m2
16:14 20.2 °C 12.7 °C 1014.1 hPa WSW 8 km/h 16.1 km/h 62% 0 mm 380 W/m2
16:19 20.1 °C 12.3 °C 1014.1 hPa WSW 8 km/h 17.7 km/h 61% 0 mm 246 W/m2
16:24 20.1 °C 12.6 °C 1014.1 hPa WSW 8 km/h 17.7 km/h 62% 0 mm 227 W/m2
16:29 20.1 °C 12.6 °C 1014.1 hPa WSW 6.4 km/h 14.5 km/h 62% 0 mm 257 W/m2
16:34 20.4 °C 12.6 °C 1014.1 hPa WSW 6.4 km/h 14.5 km/h 61% 0 mm 707 W/m2
16:39 20.8 °C 12.7 °C 1013.8 hPa WSW 8 km/h 14.5 km/h 60% 0 mm 740 W/m2
16:44 21.2 °C 12.6 °C 1013.8 hPa WSW 8 km/h 14.5 km/h 58% 0 mm 575 W/m2
16:49 21.3 °C 12.2 °C 1013.8 hPa WSW 8 km/h 16.1 km/h 56% 0 mm 352 W/m2
16:54 21.3 °C 12.4 °C 1013.8 hPa WSW 6.4 km/h 16.1 km/h 57% 0 mm 288 W/m2
16:59 21.4 °C 12.5 °C 1013.4 hPa SW 4.8 km/h 11.3 km/h 57% 0 mm 388 W/m2
17:04 21.7 °C 12.8 °C 1013.4 hPa SW 6.4 km/h 11.3 km/h 57% 0 mm 673 W/m2
17:09 22.2 °C 12.7 °C 1013.4 hPa SW 4.8 km/h 12.9 km/h 55% 0 mm 635 W/m2
17:14 22.4 °C 12.3 °C 1013.4 hPa WSW 6.4 km/h 12.9 km/h 53% 0 mm 267 W/m2
17:19 22.3 °C 11.9 °C 1013.8 hPa West 6.4 km/h 11.3 km/h 52% 0 mm 255 W/m2
17:24 22.2 °C 11.9 °C 1013.8 hPa West 4.8 km/h 12.9 km/h 52% 0 mm 250 W/m2
17:29 22.3 °C 11.9 °C 1013.8 hPa WSW 4.8 km/h 12.9 km/h 52% 0 mm 390 W/m2
17:34 22.3 °C 11.7 °C 1014.1 hPa WSW 3.2 km/h 6.4 km/h 51% 0 mm 229 W/m2
17:39 22.3 °C 11.7 °C 1014.1 hPa SW 3.2 km/h 8 km/h 51% 0 mm 148 W/m2
17:44 22.1 °C 12.3 °C 1014.4 hPa SE 6.4 km/h 19.3 km/h 54% 0 mm 51 W/m2
17:49 21.3 °C 11.6 °C 1014.4 hPa ESE 11.3 km/h 25.7 km/h 54% 0 mm 32 W/m2
17:54 20.3 °C 11.5 °C 1014.8 hPa East 12.9 km/h 25.7 km/h 57% 0 mm 25 W/m2
17:59 19.4 °C 11.7 °C 1014.8 hPa ENE 11.3 km/h 24.1 km/h 61% 0 mm 18 W/m2
18:04 18.8 °C 13.4 °C 1015.1 hPa ENE 9.7 km/h 17.7 km/h 71% 1.02 mm 21 W/m2
18:09 18.1 °C 13.6 °C 1014.8 hPa ESE 8 km/h 16.1 km/h 75% 3.05 mm 30 W/m2
18:14 17.2 °C 13.3 °C 1014.4 hPa South 8 km/h 14.5 km/h 78% 4.57 mm 42 W/m2
18:19 16.4 °C 13.2 °C 1014.4 hPa SSW 9.7 km/h 16.1 km/h 81% 5.08 mm 56 W/m2
18:24 15.9 °C 13.2 °C 1014.4 hPa SSW 8 km/h 16.1 km/h 84% 5.08 mm 86 W/m2
18:29 15.8 °C 13.4 °C 1014.1 hPa SW 4.8 km/h 11.3 km/h 86% 5.08 mm 123 W/m2
18:34 15.7 °C 13.7 °C 1014.1 hPa SW 3.2 km/h 9.7 km/h 88% 5.08 mm 186 W/m2
18:39 15.9 °C 13.9 °C 1014.1 hPa SW 3.2 km/h 6.4 km/h 88% 5.08 mm 271 W/m2
18:44 16 °C 14 °C 1014.1 hPa SW 1.6 km/h 6.4 km/h 88% 5.08 mm 127 W/m2
18:49 16 °C 14 °C 1014.1 hPa SW 1.6 km/h 4.8 km/h 88% 5.08 mm 83 W/m2
18:54 15.9 °C 13.8 °C 1014.1 hPa SW 1.6 km/h 4.8 km/h 87% 5.08 mm 46 W/m2
18:59 15.9 °C 13.9 °C 1014.4 hPa WNW 1.6 km/h 8 km/h 88% 5.08 mm 26 W/m2
19:04 15.9 °C 14.1 °C 1014.8 hPa NNW 4.8 km/h 11.3 km/h 89% 3.56 mm 19 W/m2
19:09 15.8 °C 13.9 °C 1014.8 hPa North 6.4 km/h 16.1 km/h 89% 2.03 mm 18 W/m2
19:14 15.7 °C 14.1 °C 1014.8 hPa North 8 km/h 17.7 km/h 90% 0.51 mm 25 W/m2
19:19 15.6 °C 14.1 °C 1014.8 hPa North 8 km/h 17.7 km/h 91% 0 mm 26 W/m2
19:24 15.4 °C 14 °C 1014.8 hPa NNE 6.4 km/h 16.1 km/h 91% 0 mm 30 W/m2
19:29 15.4 °C 14.1 °C 1015.1 hPa NE 4.8 km/h 12.9 km/h 92% 0 mm 26 W/m2
19:34 15.3 °C 14.1 °C 1015.1 hPa NE 4.8 km/h 12.9 km/h 92% 0.25 mm 26 W/m2
19:39 15.3 °C 14 °C 1014.8 hPa North 4.8 km/h 9.7 km/h 92% 0.25 mm 30 W/m2
19:44 15.3 °C 14 °C 1014.8 hPa NNW 4.8 km/h 9.7 km/h 92% 0.25 mm 33 W/m2
19:49 15.3 °C 14 °C 1014.8 hPa NNW 3.2 km/h 6.4 km/h 92% 0.25 mm 32 W/m2
19:54 15.3 °C 14 °C 1014.8 hPa NW 3.2 km/h 6.4 km/h 92% 0.25 mm 35 W/m2
19:59 15.3 °C 14 °C 1014.4 hPa WNW 3.2 km/h 6.4 km/h 92% 0.25 mm 46 W/m2
20:04 15.2 °C 13.9 °C 1014.4 hPa WNW 3.2 km/h 8 km/h 92% 0.25 mm 47 W/m2
20:09 15.3 °C 14.2 °C 1014.4 hPa WNW 3.2 km/h 8 km/h 93% 0.25 mm 33 W/m2
20:14 15.2 °C 13.9 °C 1014.4 hPa WNW 3.2 km/h 6.4 km/h 92% 0.25 mm 21 W/m2
20:19 15.2 °C 14.1 °C 1014.4 hPa WNW 3.2 km/h 6.4 km/h 93% 0.25 mm 16 W/m2
20:24 15.3 °C 14.2 °C 1014.1 hPa West 4.8 km/h 11.3 km/h 93% 0.25 mm 14 W/m2
20:29 15.3 °C 14 °C 1014.1 hPa West 6.4 km/h 11.3 km/h 92% 0.25 mm 14 W/m2
20:34 15.2 °C 13.9 °C 1014.1 hPa West 6.4 km/h 12.9 km/h 92% 0 mm 12 W/m2
20:39 15.2 °C 13.9 °C 1014.1 hPa West 6.4 km/h 12.9 km/h 92% 0 mm 9 W/m2
20:44 15.1 °C 13.7 °C 1014.4 hPa West 4.8 km/h 12.9 km/h 91% 0 mm 7 W/m2
20:49 15.1 °C 13.6 °C 1014.4 hPa West 1.6 km/h 6.4 km/h 91% 0 mm 5 W/m2
20:54 15.1 °C 13.6 °C 1014.4 hPa Calm   1.6 km/h 91% 0 mm 5 W/m2
20:59 15 °C 13.7 °C 1014.4 hPa Calm     92% 0 mm 0 W/m2
21:04 14.9 °C 13.7 °C 1014.4 hPa Calm     92% 0 mm 0 W/m2
21:09 14.9 °C 13.6 °C 1014.4 hPa Calm     92% 0 mm 0 W/m2
21:14 14.8 °C 13.5 °C 1014.8 hPa Calm     92% 0 mm 0 W/m2
21:19 14.7 °C 13.4 °C 1014.8 hPa Calm     92% 0 mm 0 W/m2
21:24 14.7 °C 13.4 °C 1014.8 hPa Calm   4.8 km/h 92% 0 mm 0 W/m2
21:29 14.6 °C 13.3 °C 1014.8 hPa Calm   4.8 km/h 92% 0 mm 0 W/m2
21:34 14.5 °C 13.2 °C 1014.8 hPa Calm   3.2 km/h 92% 0 mm 0 W/m2
Wareham Weather
Compliments of Weather Underground - 2 mb